Portada
METAR-TAF:

METAR-TAF

Aeropuertos :

Cahokia / San Luis, Illinois, Estados Unidos

latitud: 38-34-15N, longitud: 090-09-22W, altitud: 126 m

Observación

El informe se hizo hace 1 hora y 13 minutos, a las 17:53 UTC
Viento 10 kt del sur-sureste
Temperatura 33°C
Humedad 44%
Presión 1023 hPa
Visibilidad: 16.1 km
Escasas nubes a una altura de 5500 ft
Nubes dispersas a una altura de 7000 ft

METAR: KCPS 191753Z 16010KT 10SM FEW055 SCT070 33/19 A3020 RMK AO2 SLP221 6//// T03280194 10333 20239 58002 PNO

Hora: 14:06 (19:06 UTC)

Pronóstico

El informe se hizo hace 1 hora y 46 minutos, a las 17:20 UTC
Pronóstico válido del 19 a las 18 UTC al 20 a las 18 UTC
Viento 9 kt del sur con ráfagas de 19 kt
Visibilidad: 10 km
Cielo nuboso a una altura de 5000 ft
A partir de las 20 a las 0100 UTC
Viento 3 kt con dirección variable
Visibilidad: 10 km
Nubes dispersas a una altura de 25000 ft

TAF: KCPS 191720Z 1918/2018 19009G19KT P6SM BKN050 FM200100 VRB03KT P6SM SCT250

Observaciones y pronósticos meteorológicos de más de 4000 aeropuertos (mensajes METAR y TAF).

Los puntos amarillos y rojos representan las estaciones disponibles.

Ponga el ratón en el punto deseado para ver el nombre de la estación.

Haga clic para ver las observaciones y los pronósticos meteorológicos.

Para cambiar el mapa : haga clic en los botones verdes con una cruz de color negro para hacer un zoom, en el botón verde con un guión para alejar o en las flechas verdes para mapas adyacentes.


METAR-TAF: